KNLC/NLC METAR and TAF weather

Enter ICAO airport designator
Station Type Date Time Source
KNLC METAR 2019/04/19 08:56 UTC NOAA

KNLC 190856Z AUTO 00000KT 10SM CLR 14/08 A3000 RMK AO2 SLP158 T01440083 58004


Station Type Date Time Source
KNLC Decoded METAR 2019/04/19 08:56 UTC NOAA

LEMOORE NAVAL AIR STATION, CA, United States (KNLC) 36-20N 119-57W 72M
Apr 19, 2019 - 04:56 AM EDT / 2019.04.19 0856 UTC
Wind: Calm:0
Visibility: 10 mile(s):0
Sky conditions: clear
Temperature: 57.9 F (14.4 C)
Dew Point: 46.9 F (8.3 C)
Relative Humidity: 66%
Pressure (altimeter): 30 in. Hg (1015 hPa)
Pressure tendency: 0.01 inches (0.4 hPa) lower than three hours ago
ob: KNLC 190856Z AUTO 00000KT 10SM CLR 14/08 A3000 RMK AO2 SLP158 T01440083 58004
cycle: 9

Station Type Date Time Source
KNLC TAF 2019/04/19 07:09 UTC NOAA

TAF KNLC 1907/2007 30007KT 9999 SCT180 BKN250 QNH2990INS
FM191700 35008KT 9999 SCT180 BKN250 QNH2979INS AUTOMATED METWATCH 1907 TIL 1914 T10/1913Z T32/1923Z FS30020

Example: see airport list